sensor_id;sensor_type;location;lat;lon;timestamp;temperature;humidity
37285;DHT22;23172;53.550;9.964;2024-01-10T00:02:23;-0.80;99.90
37285;DHT22;23172;53.550;9.964;2024-01-10T00:07:24;-0.80;99.90
37285;DHT22;23172;53.550;9.964;2024-01-10T00:12:28;-0.80;99.90
37285;DHT22;23172;53.550;9.964;2024-01-10T00:17:34;-0.90;99.90
37285;DHT22;23172;53.550;9.964;2024-01-10T00:22:35;-0.90;99.90
37285;DHT22;23172;53.550;9.964;2024-01-10T00:27:39;-1.00;99.90
37285;DHT22;23172;53.550;9.964;2024-01-10T00:32:40;-1.00;99.90
37285;DHT22;23172;53.550;9.964;2024-01-10T00:37:42;-1.00;99.90
37285;DHT22;23172;53.550;9.964;2024-01-10T00:42:45;-1.00;99.90
37285;DHT22;23172;53.550;9.964;2024-01-10T00:47:48;-1.00;99.90
37285;DHT22;23172;53.550;9.964;2024-01-10T00:52:50;-1.00;99.90
37285;DHT22;23172;53.550;9.964;2024-01-10T00:57:53;-0.90;99.90
37285;DHT22;23172;53.550;9.964;2024-01-10T01:02:55;-0.90;99.90
37285;DHT22;23172;53.550;9.964;2024-01-10T01:07:57;-0.90;99.90
37285;DHT22;23172;53.550;9.964;2024-01-10T01:13:00;-0.90;99.90
37285;DHT22;23172;53.550;9.964;2024-01-10T01:18:03;-0.90;99.90
37285;DHT22;23172;53.550;9.964;2024-01-10T01:23:05;-0.90;99.90
37285;DHT22;23172;53.550;9.964;2024-01-10T01:28:08;-1.00;99.90
37285;DHT22;23172;53.550;9.964;2024-01-10T01:33:10;-1.10;99.90
37285;DHT22;23172;53.550;9.964;2024-01-10T01:38:12;-1.20;99.90
37285;DHT22;23172;53.550;9.964;2024-01-10T01:43:23;-1.30;99.90
37285;DHT22;23172;53.550;9.964;2024-01-10T01:48:25;-1.40;99.90
37285;DHT22;23172;53.550;9.964;2024-01-10T01:53:27;-1.50;99.90
37285;DHT22;23172;53.550;9.964;2024-01-10T01:58:31;-1.70;99.90
37285;DHT22;23172;53.550;9.964;2024-01-10T02:03:34;-1.70;99.90
37285;DHT22;23172;53.550;9.964;2024-01-10T02:08:36;-1.80;99.90
37285;DHT22;23172;53.550;9.964;2024-01-10T02:13:39;-1.80;99.90
37285;DHT22;23172;53.550;9.964;2024-01-10T02:18:41;-1.80;99.90
37285;DHT22;23172;53.550;9.964;2024-01-10T02:23:43;-1.80;99.90
37285;DHT22;23172;53.550;9.964;2024-01-10T02:28:46;-1.80;99.90
37285;DHT22;23172;53.550;9.964;2024-01-10T02:33:48;-1.90;99.90
37285;DHT22;23172;53.550;9.964;2024-01-10T02:38:50;-1.90;99.90
37285;DHT22;23172;53.550;9.964;2024-01-10T02:43:53;-1.90;99.90
37285;DHT22;23172;53.550;9.964;2024-01-10T02:48:59;-1.90;99.90
37285;DHT22;23172;53.550;9.964;2024-01-10T02:54:01;-1.90;99.90
37285;DHT22;23172;53.550;9.964;2024-01-10T02:59:04;-1.90;99.90
37285;DHT22;23172;53.550;9.964;2024-01-10T03:04:05;-1.80;99.90
37285;DHT22;23172;53.550;9.964;2024-01-10T03:09:07;-1.80;99.90
37285;DHT22;23172;53.550;9.964;2024-01-10T03:14:11;-1.80;99.90
37285;DHT22;23172;53.550;9.964;2024-01-10T03:19:13;-1.80;99.90
37285;DHT22;23172;53.550;9.964;2024-01-10T03:24:15;-1.80;99.90
37285;DHT22;23172;53.550;9.964;2024-01-10T03:29:18;-1.80;99.90
37285;DHT22;23172;53.550;9.964;2024-01-10T03:34:20;-1.70;99.90
37285;DHT22;23172;53.550;9.964;2024-01-10T03:39:22;-1.70;99.90
37285;DHT22;23172;53.550;9.964;2024-01-10T03:44:26;-1.70;99.90
37285;DHT22;23172;53.550;9.964;2024-01-10T03:49:28;-1.70;99.90
37285;DHT22;23172;53.550;9.964;2024-01-10T03:54:30;-1.70;99.90
37285;DHT22;23172;53.550;9.964;2024-01-10T03:59:33;-1.80;99.90
37285;DHT22;23172;53.550;9.964;2024-01-10T04:04:37;-1.80;99.90
37285;DHT22;23172;53.550;9.964;2024-01-10T04:09:39;-1.70;99.90
37285;DHT22;23172;53.550;9.964;2024-01-10T04:14:42;-1.70;99.90
37285;DHT22;23172;53.550;9.964;2024-01-10T04:19:44;-1.70;99.90
37285;DHT22;23172;53.550;9.964;2024-01-10T04:24:46;-1.60;99.90
37285;DHT22;23172;53.550;9.964;2024-01-10T04:29:49;-1.60;99.90
37285;DHT22;23172;53.550;9.964;2024-01-10T04:34:51;-1.50;99.90
37285;DHT22;23172;53.550;9.964;2024-01-10T04:39:52;-1.50;99.90
37285;DHT22;23172;53.550;9.964;2024-01-10T04:44:56;-1.40;99.90
37285;DHT22;23172;53.550;9.964;2024-01-10T04:49:58;-1.40;99.90
37285;DHT22;23172;53.550;9.964;2024-01-10T04:54:59;-1.30;99.90
37285;DHT22;23172;53.550;9.964;2024-01-10T05:00:05;-1.20;99.90
37285;DHT22;23172;53.550;9.964;2024-01-10T05:05:07;-1.10;99.90
37285;DHT22;23172;53.550;9.964;2024-01-10T05:10:09;-1.00;99.90
37285;DHT22;23172;53.550;9.964;2024-01-10T05:15:12;-1.00;99.90
37285;DHT22;23172;53.550;9.964;2024-01-10T05:20:15;-0.90;99.90
37285;DHT22;23172;53.550;9.964;2024-01-10T05:25:17;-0.90;99.90
37285;DHT22;23172;53.550;9.964;2024-01-10T05:30:20;-0.80;99.90
37285;DHT22;23172;53.550;9.964;2024-01-10T05:35:22;-0.80;99.90
37285;DHT22;23172;53.550;9.964;2024-01-10T05:40:25;-0.70;99.90
37285;DHT22;23172;53.550;9.964;2024-01-10T05:45:29;-0.70;99.90
37285;DHT22;23172;53.550;9.964;2024-01-10T05:50:31;-0.80;99.90
37285;DHT22;23172;53.550;9.964;2024-01-10T05:55:32;-0.80;99.90
37285;DHT22;23172;53.550;9.964;2024-01-10T06:00:36;-0.80;99.90
37285;DHT22;23172;53.550;9.964;2024-01-10T06:05:37;-0.70;99.90
37285;DHT22;23172;53.550;9.964;2024-01-10T06:10:39;-0.70;99.90
37285;DHT22;23172;53.550;9.964;2024-01-10T06:15:42;-0.60;99.90
37285;DHT22;23172;53.550;9.964;2024-01-10T06:20:44;-0.60;99.90
37285;DHT22;23172;53.550;9.964;2024-01-10T06:25:46;-0.60;99.90
37285;DHT22;23172;53.550;9.964;2024-01-10T06:30:49;-0.60;99.90
37285;DHT22;23172;53.550;9.964;2024-01-10T06:35:52;-0.60;99.90
37285;DHT22;23172;53.550;9.964;2024-01-10T06:40:55;-0.60;99.90
37285;DHT22;23172;53.550;9.964;2024-01-10T06:45:58;-0.60;99.90
37285;DHT22;23172;53.550;9.964;2024-01-10T06:50:59;-0.60;99.90
37285;DHT22;23172;53.550;9.964;2024-01-10T06:56:01;-0.60;99.90
37285;DHT22;23172;53.550;9.964;2024-01-10T07:01:05;-0.60;99.90
37285;DHT22;23172;53.550;9.964;2024-01-10T07:06:07;-0.60;99.90
37285;DHT22;23172;53.550;9.964;2024-01-10T07:11:08;-0.60;99.90
37285;DHT22;23172;53.550;9.964;2024-01-10T07:16:13;-0.50;99.90
37285;DHT22;23172;53.550;9.964;2024-01-10T07:21:16;-0.50;99.90
37285;DHT22;23172;53.550;9.964;2024-01-10T07:26:18;-0.50;99.90
37285;DHT22;23172;53.550;9.964;2024-01-10T07:31:21;-0.50;99.90
37285;DHT22;23172;53.550;9.964;2024-01-10T07:36:24;-0.50;99.90
37285;DHT22;23172;53.550;9.964;2024-01-10T07:41:27;-0.50;99.90
37285;DHT22;23172;53.550;9.964;2024-01-10T07:46:30;-0.50;99.90
37285;DHT22;23172;53.550;9.964;2024-01-10T07:51:32;-0.50;99.90
37285;DHT22;23172;53.550;9.964;2024-01-10T07:56:34;-0.40;99.90
37285;DHT22;23172;53.550;9.964;2024-01-10T08:01:37;-0.40;99.90
37285;DHT22;23172;53.550;9.964;2024-01-10T08:06:39;-0.40;99.90
37285;DHT22;23172;53.550;9.964;2024-01-10T08:11:41;-0.40;99.90
37285;DHT22;23172;53.550;9.964;2024-01-10T08:16:44;-0.30;99.90
37285;DHT22;23172;53.550;9.964;2024-01-10T08:21:46;-0.30;99.90
37285;DHT22;23172;53.550;9.964;2024-01-10T08:26:48;-0.30;99.90
37285;DHT22;23172;53.550;9.964;2024-01-10T08:31:53;-0.30;99.90
37285;DHT22;23172;53.550;9.964;2024-01-10T08:36:55;-0.30;99.90
37285;DHT22;23172;53.550;9.964;2024-01-10T08:41:57;-0.30;99.90
37285;DHT22;23172;53.550;9.964;2024-01-10T08:47:01;-0.30;99.90
37285;DHT22;23172;53.550;9.964;2024-01-10T08:52:03;-0.30;99.90
37285;DHT22;23172;53.550;9.964;2024-01-10T08:57:05;-0.30;99.90
37285;DHT22;23172;53.550;9.964;2024-01-10T09:02:08;-0.20;99.90
37285;DHT22;23172;53.550;9.964;2024-01-10T09:07:11;-0.20;99.90
37285;DHT22;23172;53.550;9.964;2024-01-10T09:12:12;-0.10;99.90
37285;DHT22;23172;53.550;9.964;2024-01-10T09:17:16;-0.10;99.90
37285;DHT22;23172;53.550;9.964;2024-01-10T09:22:18;0.00;99.90
37285;DHT22;23172;53.550;9.964;2024-01-10T09:27:20;0.10;99.90
37285;DHT22;23172;53.550;9.964;2024-01-10T09:32:24;0.10;99.90
37285;DHT22;23172;53.550;9.964;2024-01-10T09:37:26;0.10;99.90
37285;DHT22;23172;53.550;9.964;2024-01-10T09:42:28;0.20;99.90
37285;DHT22;23172;53.550;9.964;2024-01-10T09:47:36;0.40;99.90
37285;DHT22;23172;53.550;9.964;2024-01-10T09:52:42;0.70;99.90
37285;DHT22;23172;53.550;9.964;2024-01-10T09:57:48;0.90;99.90
37285;DHT22;23172;53.550;9.964;2024-01-10T10:02:54;0.90;99.90
37285;DHT22;23172;53.550;9.964;2024-01-10T10:08:00;0.70;99.90
37285;DHT22;23172;53.550;9.964;2024-01-10T10:13:03;0.60;99.90
37285;DHT22;23172;53.550;9.964;2024-01-10T10:18:14;0.60;99.90
37285;DHT22;23172;53.550;9.964;2024-01-10T10:23:16;0.50;99.90
37285;DHT22;23172;53.550;9.964;2024-01-10T10:28:21;0.60;99.90
37285;DHT22;23172;53.550;9.964;2024-01-10T10:33:24;0.60;99.90
37285;DHT22;23172;53.550;9.964;2024-01-10T10:38:26;0.60;99.90
37285;DHT22;23172;53.550;9.964;2024-01-10T10:43:32;0.70;99.90
37285;DHT22;23172;53.550;9.964;2024-01-10T10:48:36;0.70;99.90
37285;DHT22;23172;53.550;9.964;2024-01-10T10:53:39;0.70;99.90
37285;DHT22;23172;53.550;9.964;2024-01-10T10:58:43;0.80;99.90
37285;DHT22;23172;53.550;9.964;2024-01-10T11:03:47;0.80;99.90
37285;DHT22;23172;53.550;9.964;2024-01-10T11:08:53;0.90;99.90
37285;DHT22;23172;53.550;9.964;2024-01-10T11:14:09;0.70;99.90
37285;DHT22;23172;53.550;9.964;2024-01-10T11:19:43;0.60;99.90
37285;DHT22;23172;53.550;9.964;2024-01-10T11:24:52;0.50;99.60
37285;DHT22;23172;53.550;9.964;2024-01-10T11:29:54;0.40;99.90
37285;DHT22;23172;53.550;9.964;2024-01-10T11:34:59;0.30;99.70
37285;DHT22;23172;53.550;9.964;2024-01-10T11:40:01;0.30;99.90
37285;DHT22;23172;53.550;9.964;2024-01-10T11:45:04;0.30;99.80
37285;DHT22;23172;53.550;9.964;2024-01-10T11:50:18;0.20;99.80
37285;DHT22;23172;53.550;9.964;2024-01-10T11:55:49;0.20;99.80
37285;DHT22;23172;53.550;9.964;2024-01-10T12:00:52;0.20;99.50
37285;DHT22;23172;53.550;9.964;2024-01-10T12:05:56;0.20;99.60
37285;DHT22;23172;53.550;9.964;2024-01-10T12:10:59;0.20;99.80
37285;DHT22;23172;53.550;9.964;2024-01-10T12:16:01;0.20;99.80
37285;DHT22;23172;53.550;9.964;2024-01-10T12:21:05;0.20;99.90
37285;DHT22;23172;53.550;9.964;2024-01-10T12:26:10;0.30;99.90
37285;DHT22;23172;53.550;9.964;2024-01-10T12:31:13;0.30;99.90
37285;DHT22;23172;53.550;9.964;2024-01-10T12:36:17;0.40;99.90
37285;DHT22;23172;53.550;9.964;2024-01-10T12:41:20;0.50;99.90
37285;DHT22;23172;53.550;9.964;2024-01-10T12:46:22;0.50;99.90
37285;DHT22;23172;53.550;9.964;2024-01-10T12:51:27;0.60;99.70
37285;DHT22;23172;53.550;9.964;2024-01-10T12:56:30;0.60;99.40
37285;DHT22;23172;53.550;9.964;2024-01-10T13:01:32;0.60;99.10
37285;DHT22;23172;53.550;9.964;2024-01-10T13:06:36;0.60;99.30
37285;DHT22;23172;53.550;9.964;2024-01-10T13:11:37;0.50;99.20
37285;DHT22;23172;53.550;9.964;2024-01-10T13:16:39;0.50;99.50
37285;DHT22;23172;53.550;9.964;2024-01-10T13:21:43;0.60;99.60
37285;DHT22;23172;53.550;9.964;2024-01-10T13:26:45;0.60;99.50
37285;DHT22;23172;53.550;9.964;2024-01-10T13:31:52;0.60;99.40
37285;DHT22;23172;53.550;9.964;2024-01-10T13:36:55;0.50;99.40
37285;DHT22;23172;53.550;9.964;2024-01-10T13:41:57;0.40;99.50
37285;DHT22;23172;53.550;9.964;2024-01-10T13:46:59;0.40;99.70
37285;DHT22;23172;53.550;9.964;2024-01-10T13:52:02;0.40;99.70
37285;DHT22;23172;53.550;9.964;2024-01-10T13:57:05;0.50;99.80
37285;DHT22;23172;53.550;9.964;2024-01-10T14:02:08;0.50;99.70
37285;DHT22;23172;53.550;9.964;2024-01-10T14:07:11;0.50;99.70
37285;DHT22;23172;53.550;9.964;2024-01-10T14:12:13;0.40;99.70
37285;DHT22;23172;53.550;9.964;2024-01-10T14:17:15;0.50;99.80
37285;DHT22;23172;53.550;9.964;2024-01-10T14:22:18;0.50;99.90
37285;DHT22;23172;53.550;9.964;2024-01-10T14:27:20;0.50;99.80
37285;DHT22;23172;53.550;9.964;2024-01-10T14:32:22;0.50;99.60
37285;DHT22;23172;53.550;9.964;2024-01-10T14:37:25;0.40;99.60
37285;DHT22;23172;53.550;9.964;2024-01-10T14:42:27;0.40;99.70
37285;DHT22;23172;53.550;9.964;2024-01-10T14:47:29;0.30;99.80
37285;DHT22;23172;53.550;9.964;2024-01-10T14:52:32;0.30;99.90
37285;DHT22;23172;53.550;9.964;2024-01-10T14:57:34;0.30;99.90
37285;DHT22;23172;53.550;9.964;2024-01-10T15:02:36;0.30;99.90
37285;DHT22;23172;53.550;9.964;2024-01-10T15:07:39;0.20;99.90
37285;DHT22;23172;53.550;9.964;2024-01-10T15:12:41;0.20;99.90
37285;DHT22;23172;53.550;9.964;2024-01-10T15:17:44;0.20;99.90
37285;DHT22;23172;53.550;9.964;2024-01-10T15:22:47;0.10;99.90
37285;DHT22;23172;53.550;9.964;2024-01-10T15:27:49;0.10;99.90
37285;DHT22;23172;53.550;9.964;2024-01-10T15:32:52;0.10;99.90
37285;DHT22;23172;53.550;9.964;2024-01-10T15:37:55;0.10;99.90
37285;DHT22;23172;53.550;9.964;2024-01-10T15:42:57;0.00;99.90
37285;DHT22;23172;53.550;9.964;2024-01-10T15:47:59;0.00;99.90
37285;DHT22;23172;53.550;9.964;2024-01-10T15:53:02;0.00;99.90
37285;DHT22;23172;53.550;9.964;2024-01-10T15:58:04;0.00;99.90
37285;DHT22;23172;53.550;9.964;2024-01-10T16:03:07;-0.10;99.90
37285;DHT22;23172;53.550;9.964;2024-01-10T16:08:10;-0.10;99.90
37285;DHT22;23172;53.550;9.964;2024-01-10T16:13:12;-0.10;99.90
37285;DHT22;23172;53.550;9.964;2024-01-10T16:18:14;-0.20;99.90
37285;DHT22;23172;53.550;9.964;2024-01-10T16:23:17;-0.20;99.90
37285;DHT22;23172;53.550;9.964;2024-01-10T16:28:19;-0.20;99.90
37285;DHT22;23172;53.550;9.964;2024-01-10T16:33:21;-0.30;99.90
37285;DHT22;23172;53.550;9.964;2024-01-10T16:38:24;-0.30;99.90
37285;DHT22;23172;53.550;9.964;2024-01-10T16:43:26;-0.30;99.90
37285;DHT22;23172;53.550;9.964;2024-01-10T16:48:28;-0.30;99.90
37285;DHT22;23172;53.550;9.964;2024-01-10T16:53:31;-0.30;99.90
37285;DHT22;23172;53.550;9.964;2024-01-10T16:58:33;-0.30;99.90
37285;DHT22;23172;53.550;9.964;2024-01-10T17:03:35;-0.30;99.90
37285;DHT22;23172;53.550;9.964;2024-01-10T17:08:38;-0.30;99.90
37285;DHT22;23172;53.550;9.964;2024-01-10T17:13:41;-0.30;99.90
37285;DHT22;23172;53.550;9.964;2024-01-10T17:18:43;-0.30;99.90
37285;DHT22;23172;53.550;9.964;2024-01-10T17:23:46;-0.30;99.90
37285;DHT22;23172;53.550;9.964;2024-01-10T17:28:48;-0.20;99.90
37285;DHT22;23172;53.550;9.964;2024-01-10T17:33:51;-0.20;99.90
37285;DHT22;23172;53.550;9.964;2024-01-10T17:38:57;-0.20;99.90
37285;DHT22;23172;53.550;9.964;2024-01-10T17:43:59;-0.20;99.90
37285;DHT22;23172;53.550;9.964;2024-01-10T17:49:01;-0.30;99.90
37285;DHT22;23172;53.550;9.964;2024-01-10T17:54:05;-0.30;99.90
37285;DHT22;23172;53.550;9.964;2024-01-10T17:59:06;-0.20;99.90
37285;DHT22;23172;53.550;9.964;2024-01-10T18:04:08;-0.30;99.90
37285;DHT22;23172;53.550;9.964;2024-01-10T18:09:12;-0.20;99.90
37285;DHT22;23172;53.550;9.964;2024-01-10T18:14:15;-0.30;99.90
37285;DHT22;23172;53.550;9.964;2024-01-10T18:19:17;-0.30;99.90
37285;DHT22;23172;53.550;9.964;2024-01-10T18:24:21;-0.30;99.90
37285;DHT22;23172;53.550;9.964;2024-01-10T18:29:22;-0.30;99.90
37285;DHT22;23172;53.550;9.964;2024-01-10T18:34:24;-0.20;99.90
37285;DHT22;23172;53.550;9.964;2024-01-10T18:39:28;-0.20;99.90
37285;DHT22;23172;53.550;9.964;2024-01-10T18:44:30;-0.20;99.90
37285;DHT22;23172;53.550;9.964;2024-01-10T18:49:32;-0.20;99.90
37285;DHT22;23172;53.550;9.964;2024-01-10T18:54:35;-0.20;99.90
37285;DHT22;23172;53.550;9.964;2024-01-10T18:59:37;-0.20;99.90
37285;DHT22;23172;53.550;9.964;2024-01-10T19:04:39;-0.20;99.90
37285;DHT22;23172;53.550;9.964;2024-01-10T19:09:42;-0.20;99.90
37285;DHT22;23172;53.550;9.964;2024-01-10T19:14:44;-0.20;99.90
37285;DHT22;23172;53.550;9.964;2024-01-10T19:19:46;-0.20;99.90
37285;DHT22;23172;53.550;9.964;2024-01-10T19:24:49;-0.20;99.90
37285;DHT22;23172;53.550;9.964;2024-01-10T19:29:51;-0.20;99.90
37285;DHT22;23172;53.550;9.964;2024-01-10T19:34:53;-0.20;99.90
37285;DHT22;23172;53.550;9.964;2024-01-10T19:39:56;-0.20;99.90
37285;DHT22;23172;53.550;9.964;2024-01-10T19:44:58;-0.30;99.90
37285;DHT22;23172;53.550;9.964;2024-01-10T19:50:01;-0.30;99.90
37285;DHT22;23172;53.550;9.964;2024-01-10T19:55:05;-0.20;99.90
37285;DHT22;23172;53.550;9.964;2024-01-10T20:00:08;-0.20;99.90
37285;DHT22;23172;53.550;9.964;2024-01-10T20:05:10;-0.20;99.90
37285;DHT22;23172;53.550;9.964;2024-01-10T20:10:13;-0.20;99.90
37285;DHT22;23172;53.550;9.964;2024-01-10T20:15:15;-0.20;99.90
37285;DHT22;23172;53.550;9.964;2024-01-10T20:20:17;-0.20;99.90
37285;DHT22;23172;53.550;9.964;2024-01-10T20:25:21;-0.10;99.90
37285;DHT22;23172;53.550;9.964;2024-01-10T20:30:25;-0.10;99.90
37285;DHT22;23172;53.550;9.964;2024-01-10T20:35:27;-0.10;99.90
37285;DHT22;23172;53.550;9.964;2024-01-10T20:40:30;-0.10;99.90
37285;DHT22;23172;53.550;9.964;2024-01-10T20:45:32;-0.20;99.90
37285;DHT22;23172;53.550;9.964;2024-01-10T20:50:34;-0.20;99.90
37285;DHT22;23172;53.550;9.964;2024-01-10T20:55:37;-0.10;99.90
37285;DHT22;23172;53.550;9.964;2024-01-10T21:00:39;-0.20;99.90
37285;DHT22;23172;53.550;9.964;2024-01-10T21:05:41;-0.20;99.90
37285;DHT22;23172;53.550;9.964;2024-01-10T21:10:45;-0.20;99.90
37285;DHT22;23172;53.550;9.964;2024-01-10T21:15:47;-0.10;99.90
37285;DHT22;23172;53.550;9.964;2024-01-10T21:20:49;-0.10;99.90
37285;DHT22;23172;53.550;9.964;2024-01-10T21:25:53;-0.10;99.90
37285;DHT22;23172;53.550;9.964;2024-01-10T21:30:54;0.00;99.90
37285;DHT22;23172;53.550;9.964;2024-01-10T21:35:56;0.00;99.90
37285;DHT22;23172;53.550;9.964;2024-01-10T21:41:00;0.10;99.90
37285;DHT22;23172;53.550;9.964;2024-01-10T21:46:02;0.10;99.90
37285;DHT22;23172;53.550;9.964;2024-01-10T21:51:04;0.10;99.90
37285;DHT22;23172;53.550;9.964;2024-01-10T21:56:07;0.10;99.90
37285;DHT22;23172;53.550;9.964;2024-01-10T22:01:09;0.10;99.90
37285;DHT22;23172;53.550;9.964;2024-01-10T22:06:11;0.10;99.90
37285;DHT22;23172;53.550;9.964;2024-01-10T22:11:14;0.00;99.90
37285;DHT22;23172;53.550;9.964;2024-01-10T22:16:16;0.00;99.90
37285;DHT22;23172;53.550;9.964;2024-01-10T22:21:20;0.00;99.90
37285;DHT22;23172;53.550;9.964;2024-01-10T22:26:23;0.00;99.90
37285;DHT22;23172;53.550;9.964;2024-01-10T22:31:25;0.10;99.90
37285;DHT22;23172;53.550;9.964;2024-01-10T22:36:26;0.10;99.90
37285;DHT22;23172;53.550;9.964;2024-01-10T22:41:30;0.10;99.90
37285;DHT22;23172;53.550;9.964;2024-01-10T22:46:31;0.10;99.90
37285;DHT22;23172;53.550;9.964;2024-01-10T22:51:33;0.10;99.90
37285;DHT22;23172;53.550;9.964;2024-01-10T22:56:36;0.10;99.90
37285;DHT22;23172;53.550;9.964;2024-01-10T23:01:38;0.20;99.90
37285;DHT22;23172;53.550;9.964;2024-01-10T23:06:40;0.20;99.90
37285;DHT22;23172;53.550;9.964;2024-01-10T23:11:43;0.20;99.90
37285;DHT22;23172;53.550;9.964;2024-01-10T23:16:45;0.20;99.90
37285;DHT22;23172;53.550;9.964;2024-01-10T23:21:47;0.20;99.90
37285;DHT22;23172;53.550;9.964;2024-01-10T23:26:51;0.20;99.90
37285;DHT22;23172;53.550;9.964;2024-01-10T23:31:53;0.30;99.90
37285;DHT22;23172;53.550;9.964;2024-01-10T23:36:55;0.30;99.90
37285;DHT22;23172;53.550;9.964;2024-01-10T23:41:58;0.30;99.90
37285;DHT22;23172;53.550;9.964;2024-01-10T23:47:00;0.30;99.90
37285;DHT22;23172;53.550;9.964;2024-01-10T23:52:02;0.40;99.90
37285;DHT22;23172;53.550;9.964;2024-01-10T23:57:05;0.40;99.90
